createdAt,value
2023-04-26T00:01:01.764Z,10.90
2023-04-26T00:03:29.565Z,9.88
2023-04-26T00:06:01.352Z,9.56
2023-04-26T00:08:29.244Z,9.66
2023-04-26T00:10:56.841Z,9.70
2023-04-26T00:13:24.538Z,9.82
2023-04-26T00:15:52.237Z,9.63
2023-04-26T00:18:19.990Z,9.78
2023-04-26T00:20:47.862Z,9.45
2023-04-26T00:23:16.811Z,9.13
2023-04-26T00:25:44.444Z,9.09
2023-04-26T00:28:11.999Z,8.80
2023-04-26T00:30:39.730Z,8.58
2023-04-26T00:33:07.572Z,8.63
2023-04-26T00:35:35.191Z,8.83
2023-04-26T00:38:02.763Z,8.86
2023-04-26T00:40:31.718Z,8.69
2023-04-26T00:42:59.605Z,9.31
2023-04-26T00:45:27.506Z,9.62
2023-04-26T00:47:55.423Z,9.42
2023-04-26T00:50:23.279Z,9.68
2023-04-26T00:52:51.968Z,9.73
2023-04-26T00:55:22.508Z,10.01
2023-04-26T00:57:52.005Z,9.99
2023-04-26T01:00:19.700Z,10.04
2023-04-26T01:02:47.551Z,9.94
2023-04-26T01:05:15.342Z,9.79
2023-04-26T01:07:43.481Z,9.63
2023-04-26T01:10:12.023Z,9.85
2023-04-26T01:12:40.275Z,9.83
2023-04-26T01:15:11.353Z,9.70
2023-04-26T01:17:39.074Z,9.86
2023-04-26T01:20:08.179Z,9.93
2023-04-26T01:22:37.167Z,9.31
2023-04-26T01:25:06.680Z,10.07
2023-04-26T01:27:34.540Z,10.22
2023-04-26T01:30:02.154Z,10.20
2023-04-26T01:32:30.295Z,10.40
2023-04-26T01:34:57.977Z,10.04
2023-04-26T01:37:25.583Z,10.21
2023-04-26T01:39:54.567Z,10.22
2023-04-26T01:42:22.134Z,9.43
2023-04-26T01:44:49.914Z,9.57
2023-04-26T01:47:17.625Z,9.95
2023-04-26T01:49:45.356Z,10.43
2023-04-26T01:52:13.357Z,10.12
2023-04-26T01:54:41.056Z,10.17
2023-04-26T01:57:10.210Z,9.63
2023-04-26T01:59:37.878Z,9.25
2023-04-26T02:02:05.667Z,9.15
2023-04-26T02:04:33.472Z,9.26
2023-04-26T02:07:01.144Z,9.33
2023-04-26T02:09:28.733Z,8.93
2023-04-26T02:11:56.322Z,8.86
2023-04-26T02:14:25.342Z,8.85
2023-04-26T02:16:52.992Z,8.89
2023-04-26T02:19:20.793Z,8.46
2023-04-26T02:21:54.308Z,8.15
2023-04-26T02:24:22.959Z,7.99
2023-04-26T02:26:51.215Z,8.11
2023-04-26T02:29:21.228Z,8.23
2023-04-26T02:31:55.938Z,8.63
2023-04-26T02:34:23.992Z,8.54
2023-04-26T02:36:51.737Z,8.82
2023-04-26T02:39:19.391Z,9.66
2023-04-26T02:41:47.196Z,9.00
2023-04-26T02:44:15.129Z,8.76
2023-04-26T02:46:42.695Z,9.32
2023-04-26T02:49:11.602Z,8.58
2023-04-26T02:51:39.264Z,9.40
2023-04-26T02:54:07.162Z,9.42
2023-04-26T02:56:35.351Z,9.60
2023-04-26T02:59:02.888Z,9.40
2023-04-26T03:01:30.593Z,9.42
2023-04-26T03:03:58.329Z,8.83
2023-04-26T03:06:27.377Z,8.54
2023-04-26T03:08:55.309Z,8.54
2023-04-26T03:11:22.951Z,8.24
2023-04-26T03:13:50.551Z,8.28
2023-04-26T03:16:19.251Z,8.29
2023-04-26T03:18:46.913Z,9.13
2023-04-26T03:21:14.761Z,9.44
2023-04-26T03:23:43.757Z,9.62
2023-04-26T03:26:11.729Z,9.27
2023-04-26T03:28:39.430Z,8.75
2023-04-26T03:31:07.161Z,8.33
2023-04-26T03:33:34.934Z,8.32
2023-04-26T03:36:02.718Z,8.32
2023-04-26T03:38:30.477Z,8.54
2023-04-26T03:40:59.461Z,8.55
2023-04-26T03:43:28.394Z,8.41
2023-04-26T03:45:56.073Z,8.43
2023-04-26T03:48:23.731Z,8.30
2023-04-26T03:50:51.360Z,8.29
2023-04-26T03:53:20.221Z,8.20
2023-04-26T03:55:47.838Z,8.08
2023-04-26T03:58:17.047Z,8.15
2023-04-26T04:00:44.643Z,8.25
2023-04-26T04:03:12.633Z,8.14
2023-04-26T04:05:40.619Z,8.00
2023-04-26T04:08:08.249Z,7.96
2023-04-26T04:10:35.949Z,8.00
2023-04-26T04:13:03.625Z,8.07
2023-04-26T04:15:32.688Z,7.90
2023-04-26T04:18:00.398Z,8.08
2023-04-26T04:20:28.157Z,8.11
2023-04-26T04:22:56.124Z,8.09
2023-04-26T04:25:24.358Z,8.03
2023-04-26T04:27:51.984Z,8.09
2023-04-26T04:30:19.763Z,8.20
2023-04-26T04:32:48.747Z,8.30
2023-04-26T04:35:16.594Z,8.29
2023-04-26T04:37:44.269Z,8.50
2023-04-26T04:40:12.745Z,8.49
2023-04-26T04:42:40.380Z,8.30
2023-04-26T04:45:09.130Z,8.25
2023-04-26T04:47:36.766Z,8.17
2023-04-26T04:50:07.468Z,8.19
2023-04-26T04:52:35.171Z,8.22
2023-04-26T04:55:03.169Z,8.35
2023-04-26T04:57:31.364Z,9.07
2023-04-26T04:59:58.943Z,9.42
2023-04-26T05:02:26.799Z,8.91
2023-04-26T05:04:54.843Z,8.66
2023-04-26T05:07:24.593Z,8.55
2023-04-26T05:09:52.450Z,9.20
2023-04-26T05:12:20.045Z,9.50
2023-04-26T05:14:47.614Z,9.93
2023-04-26T05:17:15.196Z,10.17
2023-04-26T05:19:42.936Z,9.89
2023-04-26T05:22:10.569Z,9.95
2023-04-26T05:24:40.039Z,10.31
2023-04-26T05:27:07.649Z,10.41
2023-04-26T05:29:35.350Z,10.24
2023-04-26T05:32:03.040Z,10.17
2023-04-26T05:34:30.716Z,9.97
2023-04-26T05:36:58.304Z,9.67
2023-04-26T05:39:26.087Z,9.73
2023-04-26T05:41:55.037Z,9.37
2023-04-26T05:44:22.868Z,9.41
2023-04-26T05:46:53.108Z,9.15
2023-04-26T05:49:20.802Z,9.47
2023-04-26T05:51:48.521Z,9.77
2023-04-26T05:54:16.426Z,10.79
2023-04-26T05:56:44.117Z,13.10
2023-04-26T05:59:13.456Z,13.44
2023-04-26T06:01:42.194Z,13.46
2023-04-26T06:04:10.697Z,13.12
2023-04-26T06:06:38.777Z,13.91
2023-04-26T06:09:06.371Z,15.14
2023-04-26T06:11:34.003Z,12.19
2023-04-26T06:14:01.681Z,13.11
2023-04-26T06:16:30.690Z,12.50
2023-04-26T06:18:58.285Z,11.55
2023-04-26T06:21:25.895Z,11.40
2023-04-26T06:23:53.671Z,10.47
2023-04-26T06:26:21.591Z,10.08
2023-04-26T06:28:49.384Z,10.38
2023-04-26T06:31:17.305Z,10.33
2023-04-26T06:33:46.273Z,10.53
2023-04-26T06:36:14.123Z,11.48
2023-04-26T06:38:41.695Z,11.89
2023-04-26T06:41:09.695Z,12.50
2023-04-26T06:43:37.392Z,12.12
2023-04-26T06:46:05.403Z,12.07
2023-04-26T06:48:33.030Z,12.23
2023-04-26T06:51:06.553Z,12.77
2023-04-26T06:53:34.654Z,13.85
2023-04-26T06:56:02.913Z,12.11
2023-04-26T06:58:30.659Z,12.32
2023-04-26T07:00:58.410Z,11.55
2023-04-26T07:03:26.489Z,12.12
2023-04-26T07:05:55.125Z,10.79
2023-04-26T07:08:24.072Z,12.74
2023-04-26T07:10:51.841Z,13.52
2023-04-26T07:13:19.720Z,11.57
2023-04-26T07:15:48.630Z,12.22
2023-04-26T07:18:16.438Z,13.97
2023-04-26T07:20:44.120Z,14.75
2023-04-26T07:23:13.436Z,14.95
2023-04-26T07:25:42.683Z,14.68
2023-04-26T07:28:10.358Z,13.09
2023-04-26T07:30:37.949Z,14.27
2023-04-26T07:33:05.660Z,14.56
2023-04-26T07:35:33.401Z,15.92
2023-04-26T07:38:01.193Z,16.78
2023-04-26T07:40:28.817Z,16.13
2023-04-26T07:42:57.684Z,15.40
2023-04-26T07:45:25.344Z,14.29
2023-04-26T07:47:53.324Z,14.54
2023-04-26T07:50:21.128Z,14.99
2023-04-26T07:52:48.921Z,15.38
2023-04-26T07:55:17.653Z,15.42
2023-04-26T07:57:45.492Z,15.74
2023-04-26T08:00:15.529Z,15.61
2023-04-26T08:02:45.183Z,16.36
2023-04-26T08:05:13.817Z,14.83
2023-04-26T08:07:42.715Z,14.81
2023-04-26T08:10:10.939Z,16.29
2023-04-26T08:12:38.975Z,16.37
2023-04-26T08:15:07.487Z,15.42
2023-04-26T08:17:36.508Z,16.18
2023-04-26T08:20:04.914Z,15.92
2023-04-26T08:22:32.552Z,15.75
2023-04-26T08:25:00.507Z,16.79
2023-04-26T08:27:28.118Z,16.92
2023-04-26T08:29:56.083Z,17.24
2023-04-26T08:32:23.665Z,17.39
2023-04-26T08:34:52.718Z,17.23
2023-04-26T08:37:20.359Z,16.40
2023-04-26T08:39:48.052Z,16.58
2023-04-26T08:42:17.353Z,17.40
2023-04-26T08:44:45.867Z,17.44
2023-04-26T08:47:17.903Z,15.50
2023-04-26T08:49:47.149Z,16.58
2023-04-26T08:52:16.447Z,16.49
2023-04-26T08:54:46.257Z,16.87
2023-04-26T08:57:15.397Z,16.74
2023-04-26T08:59:43.795Z,16.39
2023-04-26T09:02:17.778Z,16.56
2023-04-26T09:04:46.145Z,16.09
2023-04-26T09:07:30.867Z,16.38
2023-04-26T09:10:00.009Z,16.15
2023-04-26T09:12:27.897Z,16.46
2023-04-26T09:14:56.817Z,15.93
2023-04-26T09:17:25.610Z,15.41
2023-04-26T09:19:54.419Z,14.70
2023-04-26T09:22:31.683Z,16.00
2023-04-26T09:25:00.390Z,14.64
2023-04-26T09:27:37.128Z,15.02
2023-04-26T09:30:08.306Z,15.00
2023-04-26T09:32:48.543Z,15.48
2023-04-26T09:35:25.756Z,16.29
2023-04-26T09:37:59.592Z,15.76
2023-04-26T09:40:31.819Z,14.78
2023-04-26T09:43:01.886Z,15.17
2023-04-26T09:45:31.749Z,15.61
2023-04-26T09:48:16.504Z,16.01
2023-04-26T09:50:45.276Z,16.65
2023-04-26T09:53:28.730Z,14.80
2023-04-26T09:55:57.608Z,15.10
2023-04-26T09:58:25.510Z,14.22
2023-04-26T10:00:55.554Z,15.00
2023-04-26T10:03:23.873Z,15.09
2023-04-26T10:05:52.723Z,15.05
2023-04-26T10:08:21.775Z,15.20
2023-04-26T10:10:50.026Z,15.55
2023-04-26T10:13:18.936Z,15.95
2023-04-26T10:15:47.693Z,15.51
2023-04-26T10:18:15.443Z,13.95
2023-04-26T10:20:48.369Z,15.15
2023-04-26T10:23:21.989Z,12.65
2023-04-26T10:25:50.073Z,13.18
2023-04-26T10:28:38.495Z,12.49
2023-04-26T10:31:06.236Z,11.84
2023-04-26T10:33:34.004Z,11.73
2023-04-26T10:36:08.349Z,11.52
2023-04-26T10:38:39.531Z,12.27
2023-04-26T10:41:33.009Z,12.75
2023-04-26T10:44:40.442Z,12.00
2023-04-26T10:47:22.599Z,12.52
2023-04-26T10:49:50.681Z,14.52
2023-04-26T10:52:19.513Z,14.72
2023-04-26T10:54:53.837Z,15.19
2023-04-26T10:57:23.350Z,14.23
2023-04-26T11:00:16.823Z,14.43
2023-04-26T11:02:46.093Z,13.94
2023-04-26T11:05:49.748Z,15.11
2023-04-26T11:08:19.314Z,13.51
2023-04-26T11:10:56.509Z,14.45
2023-04-26T11:13:24.227Z,14.67
2023-04-26T11:16:01.225Z,15.02
2023-04-26T11:18:29.248Z,15.30
2023-04-26T11:20:56.954Z,14.66
2023-04-26T11:23:25.954Z,14.92
2023-04-26T11:25:57.419Z,14.09
2023-04-26T11:28:25.328Z,15.10
2023-04-26T11:30:52.932Z,15.53
2023-04-26T11:33:22.013Z,14.86
2023-04-26T11:35:50.125Z,15.87
2023-04-26T11:38:21.584Z,16.57
2023-04-26T11:40:57.608Z,15.32
2023-04-26T11:43:34.156Z,14.14
2023-04-26T11:46:02.471Z,15.94
2023-04-26T11:48:31.763Z,16.57
2023-04-26T11:51:02.576Z,16.14
2023-04-26T11:53:36.149Z,14.11
2023-04-26T11:56:13.578Z,15.27
2023-04-26T11:58:44.393Z,14.33
2023-04-26T12:01:11.957Z,14.07
2023-04-26T12:03:39.645Z,14.39
2023-04-26T12:06:07.627Z,13.29
2023-04-26T12:08:35.202Z,13.41
2023-04-26T12:11:03.263Z,13.33
2023-04-26T12:13:32.966Z,13.75
2023-04-26T12:16:00.554Z,13.79
2023-04-26T12:18:32.360Z,14.82
2023-04-26T12:21:01.173Z,14.06
2023-04-26T12:23:37.527Z,14.02
2023-04-26T12:26:05.595Z,14.11
2023-04-26T12:28:34.567Z,14.96
2023-04-26T12:31:02.357Z,15.13
2023-04-26T12:33:30.456Z,14.28
2023-04-26T12:35:58.335Z,15.03
2023-04-26T12:38:26.121Z,14.08
2023-04-26T12:40:53.800Z,13.80
2023-04-26T12:43:21.447Z,14.70
2023-04-26T12:45:50.894Z,16.21
2023-04-26T12:48:21.701Z,18.38
2023-04-26T12:50:51.214Z,17.28
2023-04-26T12:53:18.908Z,18.03
2023-04-26T12:55:46.718Z,18.69
2023-04-26T12:58:14.628Z,19.28
2023-04-26T13:00:44.495Z,18.44
2023-04-26T13:03:13.994Z,19.87
2023-04-26T13:05:41.801Z,19.78
2023-04-26T13:08:09.395Z,19.53
2023-04-26T13:10:38.088Z,19.06
2023-04-26T13:13:06.985Z,19.10
2023-04-26T13:15:34.682Z,19.07
2023-04-26T13:18:02.545Z,18.74
2023-04-26T13:20:31.602Z,18.14
2023-04-26T13:22:59.204Z,18.77
2023-04-26T13:25:26.944Z,19.38
2023-04-26T13:27:54.517Z,19.62
2023-04-26T13:30:22.070Z,20.05
2023-04-26T13:32:50.763Z,19.26
2023-04-26T13:35:18.588Z,19.55
2023-04-26T13:37:48.179Z,18.78
2023-04-26T13:40:15.770Z,18.54
2023-04-26T13:42:43.487Z,16.43
2023-04-26T13:45:13.257Z,15.45
2023-04-26T13:47:40.798Z,16.30
2023-04-26T13:50:09.275Z,16.21
2023-04-26T13:52:37.042Z,17.67
2023-04-26T13:55:07.248Z,17.94
2023-04-26T13:57:34.886Z,17.81
2023-04-26T14:00:02.602Z,17.64
2023-04-26T14:02:30.408Z,17.14
2023-04-26T14:04:58.137Z,18.15
2023-04-26T14:07:25.912Z,18.03
2023-04-26T14:09:53.483Z,17.68
2023-04-26T14:12:22.372Z,16.16
2023-04-26T14:14:50.529Z,16.15
2023-04-26T14:17:18.085Z,15.46
2023-04-26T14:19:45.751Z,16.67
2023-04-26T14:22:13.381Z,17.91
2023-04-26T14:24:41.002Z,17.59
2023-04-26T14:27:08.601Z,17.15
2023-04-26T14:29:37.497Z,15.89
2023-04-26T14:32:05.944Z,15.41
2023-04-26T14:34:33.874Z,15.86
2023-04-26T14:37:01.818Z,15.53
2023-04-26T14:39:29.762Z,16.18
2023-04-26T14:41:57.389Z,15.96
2023-04-26T14:44:26.538Z,15.80
2023-04-26T14:46:55.571Z,15.24
2023-04-26T14:49:23.229Z,14.86
2023-04-26T14:51:53.121Z,15.03
2023-04-26T14:54:21.450Z,15.04
2023-04-26T14:56:49.192Z,14.27
2023-04-26T14:59:18.074Z,14.13
2023-04-26T15:01:46.081Z,14.30
2023-04-26T15:04:16.436Z,14.38
2023-04-26T15:06:44.164Z,14.55
2023-04-26T15:09:11.881Z,14.49
2023-04-26T15:11:39.553Z,14.35
2023-04-26T15:14:07.245Z,14.27
2023-04-26T15:16:34.938Z,14.41
2023-04-26T15:19:02.553Z,14.61
2023-04-26T15:21:31.633Z,15.37
2023-04-26T15:23:59.167Z,15.06
2023-04-26T15:26:26.846Z,15.28
2023-04-26T15:28:54.774Z,14.97
2023-04-26T15:31:22.717Z,14.86
2023-04-26T15:33:50.284Z,14.66
2023-04-26T15:36:17.993Z,14.69
2023-04-26T15:38:46.952Z,15.10
2023-04-26T15:41:14.670Z,14.90
2023-04-26T15:43:42.308Z,15.12
2023-04-26T15:46:12.974Z,15.24
2023-04-26T15:48:40.529Z,15.47
2023-04-26T15:51:08.203Z,15.24
2023-04-26T15:53:39.218Z,14.98
2023-04-26T15:56:15.713Z,15.53
2023-04-26T15:58:44.092Z,15.29
2023-04-26T16:01:12.233Z,14.43
2023-04-26T16:03:41.800Z,14.62
2023-04-26T16:06:10.504Z,14.98
2023-04-26T16:08:40.777Z,14.66
2023-04-26T16:11:08.690Z,14.27
2023-04-26T16:13:37.894Z,14.43
2023-04-26T16:16:07.752Z,14.97
2023-04-26T16:18:35.453Z,15.44
2023-04-26T16:21:04.020Z,15.92
2023-04-26T16:23:31.926Z,15.41
2023-04-26T16:26:00.047Z,15.05
2023-04-26T16:28:27.687Z,14.62
2023-04-26T16:30:59.209Z,14.71
2023-04-26T16:33:27.380Z,14.94
2023-04-26T16:35:55.269Z,14.90
2023-04-26T16:38:22.965Z,15.09
2023-04-26T16:40:54.105Z,15.37
2023-04-26T16:43:21.632Z,15.25
2023-04-26T16:45:58.467Z,15.36
2023-04-26T16:48:27.919Z,15.97
2023-04-26T16:50:55.460Z,15.94
2023-04-26T16:53:23.359Z,15.85
2023-04-26T16:55:50.917Z,15.58
2023-04-26T16:58:18.705Z,15.20
2023-04-26T17:00:46.463Z,15.62
2023-04-26T17:03:15.754Z,15.43
2023-04-26T17:05:45.764Z,15.42
2023-04-26T17:08:14.303Z,15.48
2023-04-26T17:10:42.875Z,15.30
2023-04-26T17:13:14.132Z,15.75
2023-04-26T17:15:42.431Z,16.13
2023-04-26T17:18:10.653Z,16.20
2023-04-26T17:20:39.756Z,16.20
2023-04-26T17:23:07.326Z,15.51
2023-04-26T17:25:35.026Z,15.10
2023-04-26T17:28:03.073Z,15.09
2023-04-26T17:30:31.047Z,15.19
2023-04-26T17:32:58.577Z,15.16
2023-04-26T17:35:26.556Z,15.22
2023-04-26T17:37:55.528Z,15.29
2023-04-26T17:40:24.510Z,15.32
2023-04-26T17:42:52.043Z,15.39
2023-04-26T17:45:19.704Z,15.68
2023-04-26T17:47:47.250Z,15.68
2023-04-26T17:50:14.959Z,15.82
2023-04-26T17:52:42.644Z,15.66
2023-04-26T17:55:12.066Z,15.53
2023-04-26T17:57:42.541Z,15.40
2023-04-26T18:00:11.370Z,15.70
2023-04-26T18:02:39.711Z,16.37
2023-04-26T18:05:07.831Z,15.76
2023-04-26T18:07:35.408Z,15.78
2023-04-26T18:10:03.370Z,15.39
2023-04-26T18:12:32.244Z,15.29
2023-04-26T18:14:59.884Z,15.20
2023-04-26T18:17:28.604Z,15.68
2023-04-26T18:19:56.204Z,15.46
2023-04-26T18:22:23.808Z,15.21
2023-04-26T18:24:51.400Z,15.30
2023-04-26T18:27:19.660Z,15.34
2023-04-26T18:29:48.579Z,15.82
2023-04-26T18:32:16.208Z,16.08
2023-04-26T18:34:43.889Z,15.54
2023-04-26T18:37:11.761Z,15.39
2023-04-26T18:39:40.500Z,15.24
2023-04-26T18:42:08.032Z,15.19
2023-04-26T18:44:35.581Z,15.32
2023-04-26T18:47:04.829Z,16.12
2023-04-26T18:49:32.428Z,16.66
2023-04-26T18:51:59.979Z,17.22
2023-04-26T18:54:27.512Z,17.49
2023-04-26T18:56:55.058Z,17.91
2023-04-26T18:59:22.718Z,17.62
2023-04-26T19:01:50.310Z,17.28
2023-04-26T19:04:19.331Z,17.27
2023-04-26T19:06:47.170Z,17.61
2023-04-26T19:09:14.964Z,17.86
2023-04-26T19:11:42.625Z,16.10
2023-04-26T19:14:10.337Z,15.59
2023-04-26T19:16:39.142Z,15.57
2023-04-26T19:19:07.578Z,15.63
2023-04-26T19:21:36.495Z,15.58
2023-04-26T19:24:08.024Z,15.94
2023-04-26T19:26:38.250Z,16.58
2023-04-26T19:29:06.997Z,16.71
2023-04-26T19:31:34.725Z,16.43
2023-04-26T19:34:02.349Z,16.30
2023-04-26T19:36:29.895Z,16.19
2023-04-26T19:38:59.039Z,16.17
2023-04-26T19:41:28.106Z,16.10
2023-04-26T19:43:55.882Z,15.81
2023-04-26T19:46:23.666Z,15.74
2023-04-26T19:48:51.379Z,15.83
2023-04-26T19:51:19.012Z,16.23
2023-04-26T19:53:46.675Z,16.03
2023-04-26T19:56:15.580Z,16.04
2023-04-26T19:58:43.149Z,15.86
2023-04-26T20:01:12.114Z,15.86
2023-04-26T20:03:39.870Z,15.87
2023-04-26T20:06:07.629Z,16.35
2023-04-26T20:08:35.424Z,17.07
2023-04-26T20:11:03.600Z,16.93
2023-04-26T20:13:32.555Z,16.92
2023-04-26T20:16:00.219Z,15.93
2023-04-26T20:18:28.796Z,16.41
2023-04-26T20:20:56.910Z,16.11
2023-04-26T20:23:24.501Z,16.04
2023-04-26T20:25:52.086Z,15.37
2023-04-26T20:28:19.876Z,15.76
2023-04-26T20:30:48.756Z,15.20
2023-04-26T20:33:16.617Z,15.43
2023-04-26T20:35:44.757Z,15.97
2023-04-26T20:38:12.310Z,15.73
2023-04-26T20:40:45.310Z,15.28
2023-04-26T20:43:12.852Z,15.00
2023-04-26T20:45:41.005Z,15.53
2023-04-26T20:48:12.217Z,15.72
2023-04-26T20:50:40.078Z,16.22
2023-04-26T20:53:07.884Z,15.93
2023-04-26T20:55:37.430Z,15.53
2023-04-26T20:58:04.989Z,15.88
2023-04-26T21:00:32.534Z,15.76
2023-04-26T21:03:00.448Z,15.50
2023-04-26T21:05:31.948Z,15.08
2023-04-26T21:07:59.466Z,15.89
2023-04-26T21:10:27.064Z,16.43
2023-04-26T21:12:55.642Z,16.88
2023-04-26T21:15:23.189Z,16.88
2023-04-26T21:17:51.110Z,16.33
2023-04-26T21:20:18.916Z,16.25
2023-04-26T21:22:48.069Z,16.27
2023-04-26T21:25:15.955Z,16.41
2023-04-26T21:27:43.530Z,16.55
2023-04-26T21:30:12.328Z,15.70
2023-04-26T21:32:39.916Z,15.13
2023-04-26T21:35:08.494Z,14.96
2023-04-26T21:37:36.351Z,14.76
2023-04-26T21:40:07.049Z,14.74
2023-04-26T21:42:34.602Z,14.68
2023-04-26T21:45:02.209Z,14.84
2023-04-26T21:47:29.966Z,15.83
2023-04-26T21:49:57.605Z,16.27
2023-04-26T21:52:25.556Z,16.21
2023-04-26T21:54:53.166Z,16.24
2023-04-26T21:57:22.139Z,16.42
2023-04-26T21:59:49.782Z,15.90
2023-04-26T22:02:17.541Z,16.39
2023-04-26T22:04:45.195Z,16.14
2023-04-26T22:07:12.984Z,16.51
2023-04-26T22:09:40.556Z,16.16
2023-04-26T22:12:08.274Z,16.40
2023-04-26T22:14:37.197Z,16.61
2023-04-26T22:17:04.905Z,15.95
2023-04-26T22:19:32.438Z,16.28
2023-04-26T22:22:00.039Z,15.88
2023-04-26T22:24:27.670Z,16.48
2023-04-26T22:26:55.548Z,16.64
2023-04-26T22:29:23.314Z,16.45
2023-04-26T22:31:52.326Z,16.50
2023-04-26T22:34:20.065Z,15.96
2023-04-26T22:36:47.722Z,15.95
2023-04-26T22:39:15.258Z,16.84
2023-04-26T22:41:42.911Z,16.89
2023-04-26T22:44:10.459Z,16.59
2023-04-26T22:46:38.057Z,16.93
2023-04-26T22:49:07.857Z,17.15
2023-04-26T22:51:35.392Z,17.03
2023-04-26T22:54:03.451Z,16.83
2023-04-26T22:56:31.243Z,16.70
2023-04-26T22:58:58.807Z,15.52
2023-04-26T23:01:28.806Z,14.71
2023-04-26T23:03:56.604Z,14.43
2023-04-26T23:06:25.900Z,14.31
2023-04-26T23:08:53.544Z,14.43
2023-04-26T23:11:21.083Z,14.43
2023-04-26T23:13:48.969Z,14.34
2023-04-26T23:16:16.825Z,14.44
2023-04-26T23:18:44.533Z,14.52
2023-04-26T23:21:12.465Z,14.31
2023-04-26T23:23:41.491Z,14.14
2023-04-26T23:26:09.279Z,14.24
2023-04-26T23:28:36.920Z,14.49
2023-04-26T23:31:04.671Z,15.07
2023-04-26T23:33:32.341Z,14.81
2023-04-26T23:35:59.880Z,15.39
2023-04-26T23:38:27.757Z,14.95
2023-04-26T23:40:56.663Z,14.10
2023-04-26T23:43:24.278Z,13.77
2023-04-26T23:45:51.809Z,13.73
2023-04-26T23:48:19.436Z,13.33
2023-04-26T23:50:47.000Z,13.37
2023-04-26T23:53:15.590Z,13.77
2023-04-26T23:55:43.125Z,13.63
2023-04-26T23:58:12.060Z,14.49
